Time,TemperatureF,DewpointF,PressureIn,WindDirection,WindDirectionDegrees,WindSpeedMPH,WindSpeedGustMPH,Humidity,HourlyPrecipIn,Conditions,Clouds,dailyrainin,SoftwareType,DateUTC
2013-02-11 00:02:00,36.0,24.0,-100.00,West,260,24.0,45.0,61,0.00,,,-99.99,,2013-02-11 06:02:00,
2013-02-11 00:11:00,36.0,23.0,-100.00,West,265,22.0,39.0,60,0.00,,,-99.99,,2013-02-11 06:11:00,
2013-02-11 00:21:00,35.0,23.0,-100.00,WSW,250,15.0,34.0,60,0.00,,,-99.99,,2013-02-11 06:21:00,
2013-02-11 00:32:00,35.0,23.0,-100.00,West,270,23.0,31.0,60,0.00,,,-99.99,,2013-02-11 06:32:00,
2013-02-11 00:42:00,35.0,23.0,-100.00,West,265,19.0,35.0,61,0.00,,,-99.99,,2013-02-11 06:42:00,
2013-02-11 00:51:00,35.0,23.0,-100.00,West,260,23.0,29.0,60,0.00,,,-99.99,,2013-02-11 06:51:00,
2013-02-11 01:01:00,35.0,23.0,-100.00,West,260,23.0,29.0,60,0.00,,,-99.99,,2013-02-11 07:01:00,
2013-02-11 01:11:00,35.0,22.0,-100.00,West,260,19.0,39.0,58,0.00,,,-99.99,,2013-02-11 07:11:00,
2013-02-11 01:21:00,35.0,22.0,-100.00,West,265,24.0,38.0,58,0.00,,,-99.99,,2013-02-11 07:21:00,
2013-02-11 01:32:00,35.0,22.0,-100.00,West,260,16.0,37.0,58,0.00,,,-99.99,,2013-02-11 07:32:00,
2013-02-11 01:41:00,35.0,22.0,-100.00,West,260,24.0,37.0,58,0.00,,,-99.99,,2013-02-11 07:41:00,
2013-02-11 01:52:00,34.0,21.0,-100.00,West,275,22.0,35.0,57,0.00,,,-99.99,,2013-02-11 07:52:00,
2013-02-11 02:01:00,34.0,21.0,-100.00,West,275,22.0,35.0,57,0.00,,,-99.99,,2013-02-11 08:01:00,
2013-02-11 02:11:00,34.0,21.0,-100.00,WSW,250,20.0,31.0,57,0.00,,,-99.99,,2013-02-11 08:11:00,
2013-02-11 02:21:00,34.0,21.0,-100.00,WSW,250,22.0,34.0,56,0.00,,,-99.99,,2013-02-11 08:21:00,
2013-02-11 02:31:00,34.0,21.0,-100.00,West,280,21.0,34.0,57,0.00,,,-99.99,,2013-02-11 08:31:00,
2013-02-11 02:42:00,34.0,21.0,-100.00,West,265,16.0,31.0,57,0.00,,,-99.99,,2013-02-11 08:42:00,
2013-02-11 02:52:00,34.0,21.0,-100.00,West,275,26.0,36.0,58,0.00,,,-99.99,,2013-02-11 08:52:00,
2013-02-11 03:01:00,34.0,21.0,-100.00,West,275,26.0,36.0,58,0.00,,,-99.99,,2013-02-11 09:01:00,
2013-02-11 03:12:00,34.0,21.0,-100.00,West,270,22.0,32.0,57,0.00,,,-99.99,,2013-02-11 09:12:00,
2013-02-11 03:21:00,34.0,21.0,-100.00,West,260,17.0,32.0,57,0.00,,,-99.99,,2013-02-11 09:21:00,
2013-02-11 03:32:00,34.0,21.0,-100.00,WNW,285,21.0,30.0,58,0.00,,,-99.99,,2013-02-11 09:32:00,
2013-02-11 03:41:00,34.0,21.0,-100.00,West,270,23.0,32.0,57,0.00,,,-99.99,,2013-02-11 09:41:00,
2013-02-11 03:51:00,34.0,21.0,-100.00,West,280,24.0,35.0,57,0.00,,,-99.99,,2013-02-11 09:51:00,
2013-02-11 04:01:00,34.0,21.0,-100.00,West,270,18.0,35.0,57,0.00,,,-99.99,,2013-02-11 10:01:00,
2013-02-11 04:11:00,34.0,21.0,-100.00,West,275,22.0,36.0,57,0.00,,,-99.99,,2013-02-11 10:11:00,
2013-02-11 04:21:00,34.0,20.0,-100.00,West,270,24.0,37.0,57,0.00,,,-99.99,,2013-02-11 10:21:00,
2013-02-11 04:31:00,34.0,20.0,-100.00,West,270,21.0,31.0,57,0.00,,,-99.99,,2013-02-11 10:31:00,
2013-02-11 04:42:00,34.0,20.0,-100.00,West,270,21.0,29.0,57,0.00,,,-99.99,,2013-02-11 10:42:00,
2013-02-11 04:51:00,34.0,20.0,-100.00,West,265,26.0,36.0,57,0.00,,,-99.99,,2013-02-11 10:51:00,
2013-02-11 05:01:00,34.0,20.0,-100.00,West,265,26.0,36.0,57,0.00,,,-99.99,,2013-02-11 11:01:00,
2013-02-11 05:11:00,34.0,20.0,-100.00,WNW,285,22.0,29.0,57,0.00,,,-99.99,,2013-02-11 11:11:00,
2013-02-11 05:22:00,34.0,20.0,-100.00,West,270,24.0,35.0,57,0.00,,,-99.99,,2013-02-11 11:22:00,
2013-02-11 05:32:00,34.0,20.0,-100.00,West,275,21.0,36.0,57,0.00,,,-99.99,,2013-02-11 11:32:00,
2013-02-11 05:42:00,34.0,20.0,-100.00,West,275,26.0,37.0,57,0.00,,,-99.99,,2013-02-11 11:42:00,
2013-02-11 05:52:00,33.0,20.0,-100.00,West,275,23.0,39.0,57,0.00,,,-99.99,,2013-02-11 11:52:00,
2013-02-11 06:03:00,33.0,20.0,-100.00,WNW,285,19.0,31.0,57,0.00,,,-99.99,,2013-02-11 12:03:00,
2013-02-11 06:12:00,33.0,20.0,-100.00,West,275,17.0,26.0,57,0.00,,,-99.99,,2013-02-11 12:12:00,
2013-02-11 06:22:00,33.0,20.0,-100.00,West,280,22.0,29.0,57,0.00,,,-99.99,,2013-02-11 12:22:00,
2013-02-11 06:32:00,33.0,20.0,-100.00,West,280,18.0,29.0,57,0.00,,,-99.99,,2013-02-11 12:32:00,
2013-02-11 06:42:00,33.0,20.0,-100.00,WNW,285,27.0,34.0,58,0.00,,,-99.99,,2013-02-11 12:42:00,
2013-02-11 06:52:00,33.0,20.0,-100.00,West,280,16.0,27.0,58,0.00,,,-99.99,,2013-02-11 12:52:00,
2013-02-11 07:02:00,33.0,20.0,-100.00,West,280,22.0,38.0,58,0.00,,,-99.99,,2013-02-11 13:02:00,
2013-02-11 07:11:00,33.0,20.0,-100.00,WNW,285,22.0,33.0,58,0.00,,,-99.99,,2013-02-11 13:11:00,
2013-02-11 07:22:00,33.0,20.0,-100.00,WNW,290,13.0,27.0,58,0.00,,,-99.99,,2013-02-11 13:22:00,
2013-02-11 07:32:00,33.0,20.0,-100.00,West,280,18.0,26.0,59,0.00,,,-99.99,,2013-02-11 13:32:00,
2013-02-11 07:42:00,33.0,20.0,-100.00,West,265,17.0,29.0,59,0.00,,,-99.99,,2013-02-11 13:42:00,
2013-02-11 07:52:00,32.0,19.0,-100.00,WNW,295,23.0,39.0,58,0.00,,,-99.99,,2013-02-11 13:52:00,
2013-02-11 08:02:00,32.0,19.0,-100.00,WNW,295,22.0,35.0,58,0.00,,,-99.99,,2013-02-11 14:02:00,
2013-02-11 08:11:00,32.0,20.0,-100.00,WNW,285,18.0,24.0,59,0.00,,,-99.99,,2013-02-11 14:11:00,
2013-02-11 08:21:00,32.0,20.0,-100.00,WNW,285,21.0,28.0,59,0.00,,,-99.99,,2013-02-11 14:21:00,
2013-02-11 08:32:00,33.0,20.0,-100.00,WNW,295,23.0,31.0,58,0.00,,,-99.99,,2013-02-11 14:32:00,
2013-02-11 08:42:00,33.0,20.0,-100.00,West,280,14.0,26.0,58,0.00,,,-99.99,,2013-02-11 14:42:00,
2013-02-11 08:52:00,32.0,20.0,-100.00,West,275,20.0,28.0,60,0.00,,,-99.99,,2013-02-11 14:52:00,
2013-02-11 09:02:00,32.0,20.0,-100.00,West,265,20.0,30.0,60,0.00,,,-99.99,,2013-02-11 15:02:00,
2013-02-11 09:11:00,33.0,20.0,-100.00,West,265,18.0,31.0,59,0.00,,,-99.99,,2013-02-11 15:11:00,
2013-02-11 09:22:00,33.0,20.0,-100.00,West,280,16.0,28.0,59,0.00,,,-99.99,,2013-02-11 15:22:00,
2013-02-11 09:32:00,33.0,20.0,-100.00,West,280,19.0,31.0,58,0.00,,,-99.99,,2013-02-11 15:32:00,
2013-02-11 09:42:00,33.0,20.0,-100.00,West,280,21.0,31.0,58,0.00,,,-99.99,,2013-02-11 15:42:00,
2013-02-11 09:52:00,33.0,20.0,-100.00,West,280,23.0,32.0,58,0.00,,,-99.99,,2013-02-11 15:52:00,
2013-02-11 10:02:00,33.0,20.0,-100.00,West,270,23.0,32.0,58,0.00,,,-99.99,,2013-02-11 16:02:00,
2013-02-11 10:11:00,33.0,21.0,-100.00,West,270,24.0,32.0,58,0.00,,,-99.99,,2013-02-11 16:11:00,
2013-02-11 10:22:00,33.0,21.0,-100.00,West,275,21.0,30.0,59,0.00,,,-99.99,,2013-02-11 16:22:00,
2013-02-11 10:32:00,34.0,21.0,-100.00,West,270,19.0,27.0,59,0.00,,,-99.99,,2013-02-11 16:32:00,
2013-02-11 10:42:00,34.0,21.0,-100.00,West,270,19.0,27.0,59,0.00,,,-99.99,,2013-02-11 16:42:00,
2013-02-11 10:52:00,35.0,22.0,-100.00,WNW,300,23.0,34.0,58,0.00,,,-99.99,,2013-02-11 16:52:00,
2013-02-11 11:01:00,35.0,22.0,-100.00,WNW,300,23.0,34.0,58,0.00,,,-99.99,,2013-02-11 17:01:00,
2013-02-11 11:11:00,35.0,22.0,-100.00,WNW,285,24.0,34.0,58,0.00,,,-99.99,,2013-02-11 17:11:00,
2013-02-11 11:21:00,35.0,22.0,-100.00,West,275,22.0,34.0,58,0.00,,,-99.99,,2013-02-11 17:21:00,
2013-02-11 11:32:00,35.0,22.0,-100.00,WNW,285,19.0,27.0,57,0.00,,,-99.99,,2013-02-11 17:32:00,
2013-02-11 11:42:00,35.0,22.0,-100.00,WNW,285,19.0,27.0,57,0.00,,,-99.99,,2013-02-11 17:42:00,
2013-02-11 11:52:00,37.0,23.0,-100.00,WNW,300,16.0,27.0,57,0.00,,,-99.99,,2013-02-11 17:52:00,
2013-02-11 12:01:00,36.0,23.0,-100.00,West,265,17.0,25.0,57,0.00,,,-99.99,,2013-02-11 18:01:00,
2013-02-11 12:11:00,36.0,23.0,-100.00,West,265,17.0,25.0,57,0.00,,,-99.99,,2013-02-11 18:11:00,
2013-02-11 12:21:00,36.0,23.0,-100.00,West,275,18.0,27.0,57,0.00,,,-99.99,,2013-02-11 18:21:00,
2013-02-11 12:32:00,36.0,22.0,-100.00,West,270,20.0,30.0,56,0.00,,,-99.99,,2013-02-11 18:32:00,
2013-02-11 12:42:00,37.0,23.0,-100.00,West,280,20.0,30.0,56,0.00,,,-99.99,,2013-02-11 18:42:00,
2013-02-11 12:53:00,36.0,22.0,-100.00,WNW,290,22.0,30.0,57,0.00,,,-99.99,,2013-02-11 18:53:00,
2013-02-11 13:02:00,36.0,22.0,-100.00,WNW,290,22.0,30.0,57,0.00,,,-99.99,,2013-02-11 19:02:00,
2013-02-11 13:11:00,36.0,23.0,-100.00,WNW,285,21.0,29.0,57,0.00,,,-99.99,,2013-02-11 19:11:00,
2013-02-11 13:21:00,36.0,22.0,-100.00,West,275,22.0,38.0,57,0.00,,,-99.99,,2013-02-11 19:21:00,
2013-02-11 13:32:00,36.0,23.0,-100.00,West,280,21.0,34.0,57,0.00,,,-99.99,,2013-02-11 19:32:00,
2013-02-11 13:41:00,37.0,23.0,-100.00,West,280,21.0,28.0,57,0.00,,,-99.99,,2013-02-11 19:41:00,
2013-02-11 13:51:00,37.0,23.0,-100.00,West,280,22.0,29.0,56,0.00,,,-99.99,,2013-02-11 19:51:00,
2013-02-11 14:01:00,37.0,23.0,-100.00,West,280,22.0,29.0,56,0.00,,,-99.99,,2013-02-11 20:01:00,
2013-02-11 14:11:00,38.0,24.0,-100.00,West,270,17.0,32.0,56,0.00,,,-99.99,,2013-02-11 20:11:00,
2013-02-11 14:21:00,38.0,24.0,-100.00,West,270,19.0,30.0,56,0.00,,,-99.99,,2013-02-11 20:21:00,
2013-02-11 14:32:00,37.0,23.0,-100.00,West,280,24.0,32.0,56,0.00,,,-99.99,,2013-02-11 20:32:00,
2013-02-11 14:41:00,38.0,24.0,-100.00,West,280,17.0,26.0,56,0.00,,,-99.99,,2013-02-11 20:41:00,
2013-02-11 14:52:00,38.0,24.0,-100.00,WNW,285,18.0,27.0,56,0.00,,,-99.99,,2013-02-11 20:52:00,
2013-02-11 15:02:00,38.0,24.0,-100.00,WNW,285,18.0,27.0,56,0.00,,,-99.99,,2013-02-11 21:02:00,
2013-02-11 15:11:00,38.0,23.0,-100.00,West,275,21.0,29.0,56,0.00,,,-99.99,,2013-02-11 21:11:00,
2013-02-11 15:21:00,38.0,24.0,-100.00,WNW,290,21.0,29.0,56,0.00,,,-99.99,,2013-02-11 21:21:00,
2013-02-11 15:32:00,38.0,24.0,-100.00,West,275,16.0,28.0,56,0.00,,,-99.99,,2013-02-11 21:32:00,
2013-02-11 15:41:00,37.0,23.0,-100.00,West,275,21.0,27.0,56,0.00,,,-99.99,,2013-02-11 21:41:00,
2013-02-11 15:52:00,37.0,23.0,-100.00,West,270,20.0,29.0,56,0.00,,,-99.99,,2013-02-11 21:52:00,
2013-02-11 16:01:00,37.0,23.0,-100.00,West,270,20.0,29.0,56,0.00,,,-99.99,,2013-02-11 22:01:00,
2013-02-11 16:11:00,36.0,23.0,-100.00,WNW,290,16.0,22.0,57,0.00,,,-99.99,,2013-02-11 22:11:00,
2013-02-11 16:21:00,36.0,23.0,-100.00,WNW,295,16.0,21.0,57,0.00,,,-99.99,,2013-02-11 22:21:00,
2013-02-11 16:32:00,37.0,23.0,-100.00,West,280,17.0,24.0,57,0.00,,,-99.99,,2013-02-11 22:32:00,
2013-02-11 16:42:00,36.0,22.0,-100.00,West,280,21.0,27.0,56,0.00,,,-99.99,,2013-02-11 22:42:00,
2013-02-11 16:52:00,36.0,22.0,-100.00,WNW,290,13.0,26.0,58,0.00,,,-99.99,,2013-02-11 22:52:00,
2013-02-11 17:02:00,36.0,22.0,-100.00,WNW,290,13.0,26.0,58,0.00,,,-99.99,,2013-02-11 23:02:00,
2013-02-11 17:11:00,35.0,22.0,-100.00,West,275,21.0,30.0,58,0.00,,,-99.99,,2013-02-11 23:11:00,
2013-02-11 17:21:00,35.0,22.0,-100.00,WNW,285,20.0,30.0,58,0.00,,,-99.99,,2013-02-11 23:21:00,
2013-02-11 17:32:00,35.0,22.0,-100.00,WNW,285,13.0,26.0,59,0.00,,,-99.99,,2013-02-11 23:32:00,
2013-02-11 17:41:00,35.0,22.0,-100.00,West,275,12.0,21.0,60,0.00,,,-99.99,,2013-02-11 23:41:00,
2013-02-11 17:52:00,34.0,22.0,-100.00,West,270,13.0,19.0,60,0.00,,,-99.99,,2013-02-11 23:52:00,
2013-02-11 18:01:00,34.0,22.0,-100.00,West,270,13.0,19.0,60,0.00,,,-99.99,,2013-02-12 00:01:00,
2013-02-11 18:11:00,34.0,22.0,-100.00,WNW,290,11.0,17.0,60,0.00,,,-99.99,,2013-02-12 00:11:00,
2013-02-11 18:22:00,34.0,22.0,-100.00,WNW,300,8.0,12.0,62,0.00,,,-99.99,,2013-02-12 00:22:00,
2013-02-11 18:32:00,34.0,22.0,-100.00,WNW,285,12.0,17.0,62,0.00,,,-99.99,,2013-02-12 00:32:00,
2013-02-11 18:42:00,34.0,22.0,-100.00,WNW,285,9.0,21.0,62,0.00,,,-99.99,,2013-02-12 00:42:00,
2013-02-11 18:52:00,34.0,22.0,-100.00,WNW,285,11.0,13.0,63,0.00,,,-99.99,,2013-02-12 00:52:00,
2013-02-11 19:02:00,34.0,22.0,-100.00,WNW,285,11.0,13.0,63,0.00,,,-99.99,,2013-02-12 01:02:00,
2013-02-11 19:11:00,34.0,23.0,-100.00,WNW,290,10.0,13.0,63,0.00,,,-99.99,,2013-02-12 01:11:00,
2013-02-11 19:21:00,34.0,22.0,-100.00,WNW,295,9.0,19.0,63,0.00,,,-99.99,,2013-02-12 01:21:00,
2013-02-11 19:32:00,33.0,22.0,-100.00,NW,305,13.0,20.0,63,0.00,,,-99.99,,2013-02-12 01:32:00,
2013-02-11 19:42:00,33.0,22.0,-100.00,NW,305,10.0,14.0,63,0.00,,,-99.99,,2013-02-12 01:42:00,
2013-02-11 19:51:00,33.0,22.0,-100.00,NW,305,11.0,18.0,63,0.00,,,-99.99,,2013-02-12 01:51:00,
2013-02-11 20:01:00,33.0,22.0,-100.00,NW,305,11.0,18.0,63,0.00,,,-99.99,,2013-02-12 02:01:00,
2013-02-11 20:11:00,33.0,22.0,-100.00,NW,310,11.0,16.0,64,0.00,,,-99.99,,2013-02-12 02:11:00,
2013-02-11 20:21:00,33.0,22.0,-100.00,NW,310,11.0,14.0,64,0.00,,,-99.99,,2013-02-12 02:21:00,
2013-02-11 20:31:00,33.0,22.0,-100.00,WNW,300,11.0,14.0,64,0.00,,,-99.99,,2013-02-12 02:31:00,
2013-02-11 20:41:00,33.0,22.0,-100.00,WNW,295,12.0,17.0,65,0.00,,,-99.99,,2013-02-12 02:41:00,
2013-02-11 20:52:00,32.0,22.0,-100.00,WNW,295,12.0,19.0,64,0.00,,,-99.99,,2013-02-12 02:52:00,
2013-02-11 21:02:00,32.0,22.0,-100.00,WNW,295,12.0,19.0,64,0.00,,,-99.99,,2013-02-12 03:02:00,
2013-02-11 21:11:00,32.0,22.0,-100.00,WNW,300,14.0,18.0,65,0.00,,,-99.99,,2013-02-12 03:11:00,
2013-02-11 21:21:00,31.0,21.0,-100.00,WNW,290,9.0,19.0,65,0.00,,,-99.99,,2013-02-12 03:21:00,
2013-02-11 21:31:00,31.0,21.0,-100.00,WNW,295,11.0,13.0,66,0.00,,,-99.99,,2013-02-12 03:31:00,
2013-02-11 21:41:00,31.0,21.0,-100.00,West,280,9.0,14.0,66,0.00,,,-99.99,,2013-02-12 03:41:00,
2013-02-11 21:51:00,31.0,21.0,-100.00,WNW,300,12.0,15.0,67,0.00,,,-99.99,,2013-02-12 03:51:00,
2013-02-11 22:01:00,31.0,21.0,-100.00,WNW,300,12.0,15.0,67,0.00,,,-99.99,,2013-02-12 04:01:00,
2013-02-11 22:11:00,31.0,21.0,-100.00,WNW,295,10.0,16.0,67,0.00,,,-99.99,,2013-02-12 04:11:00,
2013-02-11 22:21:00,31.0,21.0,-100.00,WNW,290,9.0,16.0,68,0.00,,,-99.99,,2013-02-12 04:21:00,
2013-02-11 22:31:00,31.0,22.0,-100.00,WNW,290,11.0,16.0,68,0.00,,,-99.99,,2013-02-12 04:31:00,
2013-02-11 22:41:00,31.0,21.0,-100.00,WNW,300,15.0,19.0,68,0.00,,,-99.99,,2013-02-12 04:41:00,
2013-02-11 22:51:00,30.0,21.0,-100.00,WNW,300,12.0,14.0,68,0.00,,,-99.99,,2013-02-12 04:51:00,
2013-02-11 23:01:00,30.0,21.0,-100.00,WNW,300,12.0,14.0,68,0.00,,,-99.99,,2013-02-12 05:01:00,
2013-02-11 23:11:00,30.0,21.0,-100.00,WNW,295,11.0,15.0,69,0.00,,,-99.99,,2013-02-12 05:11:00,
2013-02-11 23:21:00,30.0,22.0,-100.00,West,280,7.0,15.0,69,0.00,,,-99.99,,2013-02-12 05:21:00,
2013-02-11 23:31:00,30.0,22.0,-100.00,WNW,295,9.0,14.0,69,0.00,,,-99.99,,2013-02-12 05:31:00,
2013-02-11 23:42:00,30.0,22.0,-100.00,WNW,300,8.0,11.0,69,0.00,,,-99.99,,2013-02-12 05:42:00,
2013-02-11 23:52:00,30.0,22.0,-100.00,WNW,290,10.0,13.0,69,0.00,,,-99.99,,2013-02-12 05:52:00,